Time;durP1;ratioP1;P1;durP2;ratioP2;P2;SDS_P1;SDS_P2;PMS_P1;PMS_P2;Temp;Humidity;BMP_temperature;BMP_pressure;BME280_temperature;BME280_humidity;BME280_pressure;Samples;Min_cycle;Max_cycle;Signal;HPM_P1;HPM_P2
2021/08/20 00:00:48;;;;;;;13.98;12.48;;;15.80;99.90;;;;;;5055906;28;20378;-87
2021/08/20 00:03:14;;;;;;;15.13;12.18;;;15.80;99.90;;;;;;5055950;28;20059;-87
2021/08/20 00:05:40;;;;;;;15.35;12.77;;;15.80;99.90;;;;;;5073117;28;20070;-87
2021/08/20 00:08:06;;;;;;;16.23;12.02;;;15.70;99.90;;;;;;5072583;28;20021;-88
2021/08/20 00:10:34;;;;;;;13.60;11.80;;;15.70;99.90;;;;;;5054638;28;20491;-87
2021/08/20 00:13:00;;;;;;;13.27;11.85;;;15.60;99.90;;;;;;5054925;28;20012;-87
2021/08/20 00:15:26;;;;;;;12.90;11.52;;;15.60;99.90;;;;;;5054809;28;20016;-87
2021/08/20 00:17:52;;;;;;;13.35;11.27;;;15.50;99.90;;;;;;5073151;28;20089;-87
2021/08/20 00:20:17;;;;;;;13.75;11.93;;;15.40;99.90;;;;;;5073524;28;20095;-87
2021/08/20 00:22:43;;;;;;;13.45;10.85;;;15.40;99.90;;;;;;5072915;28;20037;-87
2021/08/20 00:25:10;;;;;;;12.85;11.32;;;15.30;99.90;;;;;;5052223;28;20384;-88
2021/08/20 00:27:36;;;;;;;11.65;10.38;;;15.30;99.90;;;;;;5054556;28;20083;-87
2021/08/20 00:30:07;;;;;;;12.60;10.82;;;15.20;99.90;;;;;;5073254;28;20090;-88
2021/08/20 00:32:33;;;;;;;13.02;10.68;;;15.20;99.90;;;;;;5074319;28;20025;-87
2021/08/20 00:34:59;;;;;;;11.95;10.70;;;15.10;99.90;;;;;;5074525;28;20491;-89
2021/08/20 00:37:25;;;;;;;13.65;10.82;;;15.10;99.90;;;;;;5056778;28;20024;-89
2021/08/20 00:39:50;;;;;;;12.60;10.73;;;15.10;99.90;;;;;;5056518;28;20476;-88
2021/08/20 00:42:16;;;;;;;13.45;11.52;;;15.00;99.90;;;;;;5072801;28;20468;-87
2021/08/20 00:44:42;;;;;;;13.10;11.13;;;15.00;99.90;;;;;;5055548;28;20392;-87
2021/08/20 00:47:08;;;;;;;15.02;12.05;;;15.00;99.90;;;;;;5055631;28;20024;-87
2021/08/20 00:49:34;;;;;;;14.02;12.20;;;15.00;99.90;;;;;;5055688;28;20115;-87
2021/08/20 00:52:00;;;;;;;15.90;13.13;;;15.00;99.90;;;;;;5074412;28;20128;-88
2021/08/20 00:54:26;;;;;;;14.57;12.18;;;15.00;99.90;;;;;;5039888;28;20027;-87
2021/08/20 00:56:52;;;;;;;14.82;12.15;;;15.00;99.90;;;;;;5074335;28;20039;-88
2021/08/20 00:59:18;;;;;;;12.27;10.68;;;15.00;99.90;;;;;;5054953;28;20111;-88
2021/08/20 01:01:45;;;;;;;14.50;13.00;;;15.00;99.90;;;;;;5056298;28;20082;-87
2021/08/20 01:04:11;;;;;;;15.20;12.48;;;15.00;99.90;;;;;;5072656;28;20032;-86
2021/08/20 01:06:37;;;;;;;13.73;11.32;;;15.00;99.90;;;;;;5072438;28;20028;-86
2021/08/20 01:09:05;;;;;;;13.82;11.65;;;15.00;99.90;;;;;;5055805;28;20066;-87
2021/08/20 01:11:31;;;;;;;13.48;10.82;;;15.00;99.90;;;;;;5055981;28;20032;-86
2021/08/20 01:13:57;;;;;;;14.65;10.63;;;15.10;99.90;;;;;;5056039;28;20067;-87
2021/08/20 01:16:24;;;;;;;11.77;10.10;;;15.00;99.90;;;;;;5073618;28;20021;-87
2021/08/20 01:18:49;;;;;;;12.30;10.60;;;15.00;99.90;;;;;;5056009;28;20028;-88
2021/08/20 01:21:21;;;;;;;12.00;9.88;;;15.00;99.90;;;;;;5055716;28;20175;-87
2021/08/20 01:23:49;;;;;;;13.45;11.65;;;15.00;99.90;;;;;;5038432;28;20036;-87
2021/08/20 01:26:15;;;;;;;12.40;11.05;;;15.00;99.90;;;;;;5055580;28;20017;-87
2021/08/20 01:28:41;;;;;;;13.75;10.75;;;15.00;99.90;;;;;;5055862;28;20062;-87
2021/08/20 01:31:10;;;;;;;13.63;9.80;;;14.90;99.90;;;;;;5055666;28;20029;-87
2021/08/20 01:33:37;;;;;;;11.52;9.98;;;14.90;99.90;;;;;;5055275;28;20063;-87
2021/08/20 01:36:03;;;;;;;12.07;10.07;;;14.80;99.90;;;;;;5055731;28;20377;-88
2021/08/20 01:38:31;;;;;;;13.90;10.02;;;14.80;99.90;;;;;;5055851;28;20024;-87
2021/08/20 01:40:57;;;;;;;12.65;10.65;;;14.80;99.90;;;;;;5073158;28;20020;-87
2021/08/20 01:43:24;;;;;;;11.20;9.98;;;14.80;99.90;;;;;;5055045;28;20076;-86
2021/08/20 01:45:50;;;;;;;12.18;10.15;;;14.90;99.90;;;;;;5073263;28;20063;-89
2021/08/20 01:48:16;;;;;;;12.80;9.70;;;14.90;99.90;;;;;;5073408;28;20021;-88
2021/08/20 01:50:43;;;;;;;12.35;10.30;;;14.80;99.90;;;;;;5038651;28;20435;-87
2021/08/20 01:53:13;;;;;;;11.70;9.82;;;14.90;99.90;;;;;;5073337;28;20025;-88
2021/08/20 01:55:44;;;;;;;13.65;10.30;;;14.80;99.90;;;;;;5055453;28;20032;-88
2021/08/20 01:58:12;;;;;;;11.55;10.32;;;14.70;99.90;;;;;;5073760;28;20024;-88
2021/08/20 02:00:39;;;;;;;11.35;9.55;;;14.70;99.90;;;;;;5055173;28;20159;-88
2021/08/20 02:03:05;;;;;;;10.18;8.75;;;14.70;99.90;;;;;;5055367;28;20040;-88
2021/08/20 02:05:32;;;;;;;14.07;10.40;;;14.70;99.90;;;;;;5055290;28;20070;-87
2021/08/20 02:07:58;;;;;;;11.98;9.95;;;14.70;99.90;;;;;;5055773;28;20029;-88
2021/08/20 02:10:23;;;;;;;13.90;11.00;;;14.70;99.90;;;;;;5055223;28;20525;-88
2021/08/20 02:12:49;;;;;;;13.75;10.88;;;14.80;99.90;;;;;;5055301;28;20491;-88
2021/08/20 02:15:15;;;;;;;13.77;11.77;;;14.80;99.90;;;;;;5055286;28;20024;-87
2021/08/20 02:17:41;;;;;;;13.63;10.35;;;14.90;99.90;;;;;;5055198;28;20166;-87
2021/08/20 02:20:07;;;;;;;14.63;11.63;;;14.90;99.90;;;;;;5055235;28;20020;-87
2021/08/20 02:22:33;;;;;;;15.48;11.45;;;15.00;99.90;;;;;;5054349;28;20565;-88
2021/08/20 02:24:59;;;;;;;13.52;10.65;;;15.00;99.90;;;;;;5055094;28;20051;-88
2021/08/20 02:27:25;;;;;;;13.38;11.25;;;15.10;99.90;;;;;;5055125;28;20020;-88
2021/08/20 02:29:51;;;;;;;14.20;11.55;;;15.10;99.90;;;;;;5073122;28;20031;-87
2021/08/20 02:32:17;;;;;;;13.15;10.70;;;15.20;99.90;;;;;;5054785;28;20047;-87
2021/08/20 02:34:43;;;;;;;14.02;10.75;;;15.20;99.90;;;;;;5057192;28;20024;-87
2021/08/20 02:37:09;;;;;;;15.25;13.20;;;15.20;99.90;;;;;;5058773;28;20035;-87
2021/08/20 02:39:35;;;;;;;14.68;12.63;;;15.20;99.90;;;;;;5058767;28;20013;-86
2021/08/20 02:42:01;;;;;;;18.15;13.38;;;15.20;99.90;;;;;;5058367;28;20144;-88
2021/08/20 02:44:27;;;;;;;22.17;15.40;;;15.30;99.90;;;;;;5076809;28;20033;-88
2021/08/20 02:46:53;;;;;;;17.42;14.60;;;15.30;99.90;;;;;;5058731;28;20024;-87
2021/08/20 02:49:18;;;;;;;15.65;13.07;;;15.30;99.90;;;;;;5058802;28;20418;-88
2021/08/20 02:51:44;;;;;;;16.13;14.43;;;15.30;99.90;;;;;;5058561;28;20131;-87
2021/08/20 02:54:10;;;;;;;17.27;13.90;;;15.30;99.90;;;;;;5076271;28;20028;-87
2021/08/20 02:56:35;;;;;;;16.20;13.65;;;15.30;99.90;;;;;;5076411;28;20025;-89
2021/08/20 02:59:01;;;;;;;18.27;16.20;;;15.30;99.90;;;;;;5058719;28;20028;-88
2021/08/20 03:01:26;;;;;;;19.48;15.23;;;15.30;99.90;;;;;;5058661;28;20021;-88
2021/08/20 03:03:52;;;;;;;18.50;15.73;;;15.40;99.90;;;;;;5058579;28;20033;-86
2021/08/20 03:06:19;;;;;;;21.90;15.35;;;15.40;99.90;;;;;;5076586;28;20024;-88
2021/08/20 03:08:44;;;;;;;17.88;14.35;;;15.30;99.90;;;;;;5058394;28;20507;-87
2021/08/20 03:11:10;;;;;;;20.38;16.38;;;15.40;99.90;;;;;;5058341;28;20157;-86
2021/08/20 03:13:36;;;;;;;21.25;18.92;;;15.40;99.90;;;;;;5058565;28;20024;-88
2021/08/20 03:16:02;;;;;;;22.27;17.35;;;15.40;99.90;;;;;;5058414;28;20115;-88
2021/08/20 03:18:27;;;;;;;20.77;17.67;;;15.40;99.90;;;;;;5058391;28;20031;-88
2021/08/20 03:20:53;;;;;;;24.63;18.27;;;15.40;99.90;;;;;;5057926;28;20033;-87
2021/08/20 03:23:19;;;;;;;25.38;19.92;;;15.40;99.90;;;;;;5058098;28;20036;-88
2021/08/20 03:25:45;;;;;;;27.15;18.98;;;15.40;99.90;;;;;;5058225;28;20099;-87
2021/08/20 03:28:10;;;;;;;24.27;19.35;;;15.50;99.90;;;;;;5057747;28;20024;-87
2021/08/20 03:30:36;;;;;;;22.92;18.52;;;15.50;99.90;;;;;;5057987;28;20074;-89
2021/08/20 03:33:03;;;;;;;23.10;18.05;;;15.50;99.90;;;;;;5057962;28;20024;-88
2021/08/20 03:35:29;;;;;;;20.70;17.38;;;15.50;99.90;;;;;;5057843;28;20030;-88
2021/08/20 03:37:55;;;;;;;22.23;18.40;;;15.50;99.90;;;;;;5076072;28;20027;-89
2021/08/20 03:40:24;;;;;;;23.02;17.45;;;15.50;99.90;;;;;;5057870;28;20415;-88
2021/08/20 03:42:52;;;;;;;23.27;18.10;;;15.50;99.90;;;;;;5057087;28;20052;-87
2021/08/20 03:45:18;;;;;;;26.10;19.65;;;15.50;99.90;;;;;;5057022;28;20020;-88
2021/08/20 03:47:44;;;;;;;27.88;20.58;;;15.50;99.90;;;;;;5057579;28;20427;-88
2021/08/20 03:50:09;;;;;;;24.88;20.05;;;15.50;99.90;;;;;;5057632;28;20024;-87
2021/08/20 03:52:35;;;;;;;29.65;20.58;;;15.50;99.90;;;;;;5040391;28;20044;-88
2021/08/20 03:55:01;;;;;;;26.08;18.35;;;15.50;99.90;;;;;;5057489;28;20402;-87
2021/08/20 03:57:27;;;;;;;22.85;17.77;;;15.60;99.90;;;;;;5075142;28;20028;-88
2021/08/20 03:59:52;;;;;;;21.70;17.70;;;15.60;99.90;;;;;;5057460;28;20027;-88
2021/08/20 04:02:18;;;;;;;23.90;16.17;;;15.60;99.90;;;;;;5057348;28;20340;-88
2021/08/20 04:04:44;;;;;;;22.20;17.48;;;15.60;99.90;;;;;;5057202;28;20030;-88
2021/08/20 04:07:09;;;;;;;22.88;17.63;;;15.60;99.90;;;;;;5057270;28;20025;-88
2021/08/20 04:09:35;;;;;;;27.08;20.35;;;15.60;99.90;;;;;;5057284;28;20025;-88
2021/08/20 04:12:00;;;;;;;25.98;19.17;;;15.60;99.90;;;;;;5056711;28;20455;-87
2021/08/20 04:14:27;;;;;;;23.08;18.58;;;15.50;99.90;;;;;;5057172;28;20119;-88
2021/08/20 04:16:52;;;;;;;23.00;18.13;;;15.50;99.90;;;;;;5074563;28;20086;-89
2021/08/20 04:19:18;;;;;;;20.05;16.40;;;15.50;99.90;;;;;;5057562;28;20465;-88
2021/08/20 04:21:47;;;;;;;20.23;15.65;;;15.40;99.90;;;;;;5056755;28;20040;-88
2021/08/20 04:24:14;;;;;;;22.13;17.45;;;15.40;99.90;;;;;;5057230;28;20103;-88
2021/08/20 04:26:41;;;;;;;22.92;17.00;;;15.40;99.90;;;;;;5057099;28;20031;-89
2021/08/20 04:29:08;;;;;;;29.05;20.45;;;15.40;99.90;;;;;;5056973;28;20091;-88
2021/08/20 04:31:33;;;;;;;23.73;17.80;;;15.40;99.90;;;;;;5074491;28;20154;-87
2021/08/20 04:33:59;;;;;;;22.95;18.00;;;15.40;99.90;;;;;;5056567;28;20112;-87
2021/08/20 04:36:26;;;;;;;22.38;16.30;;;15.40;99.90;;;;;;5056866;28;20097;-87
2021/08/20 04:38:52;;;;;;;25.38;18.85;;;15.40;99.90;;;;;;5040188;28;20042;-87
2021/08/20 04:41:18;;;;;;;24.90;19.27;;;15.50;99.90;;;;;;5056121;28;20029;-89
2021/08/20 04:43:44;;;;;;;22.63;17.63;;;15.50;99.90;;;;;;5056400;28;20392;-88
2021/08/20 04:46:09;;;;;;;24.17;17.75;;;15.50;99.90;;;;;;5056157;28;20082;-89
2021/08/20 04:48:36;;;;;;;24.15;17.67;;;15.50;99.90;;;;;;5074228;28;20055;-88
2021/08/20 04:51:02;;;;;;;23.17;17.80;;;15.60;99.90;;;;;;5056223;28;20082;-88
2021/08/20 04:53:30;;;;;;;21.58;16.48;;;15.60;99.90;;;;;;5056215;28;20024;-87
2021/08/20 04:55:57;;;;;;;20.90;16.05;;;15.60;99.90;;;;;;5056530;28;20025;-88
2021/08/20 04:58:23;;;;;;;21.00;16.38;;;15.60;99.90;;;;;;5055423;28;20449;-88
2021/08/20 05:00:49;;;;;;;21.60;16.27;;;15.60;99.90;;;;;;5056185;28;20068;-88
2021/08/20 05:03:18;;;;;;;21.17;16.02;;;15.60;99.90;;;;;;5056428;28;20070;-88
2021/08/20 05:05:44;;;;;;;21.13;15.30;;;15.70;99.90;;;;;;5074479;28;20024;-88
2021/08/20 05:08:10;;;;;;;23.60;16.67;;;15.70;99.90;;;;;;5074350;28;20056;-88
2021/08/20 05:10:36;;;;;;;23.20;17.25;;;15.70;99.90;;;;;;5055962;28;20024;-88
2021/08/20 05:13:02;;;;;;;20.60;15.43;;;15.70;99.90;;;;;;5055442;28;20464;-88
2021/08/20 05:15:29;;;;;;;25.38;16.67;;;15.80;99.90;;;;;;5056229;28;20135;-88
2021/08/20 05:17:57;;;;;;;22.45;16.90;;;15.80;99.90;;;;;;5055820;28;20119;-89
2021/08/20 05:20:23;;;;;;;27.83;18.85;;;15.80;99.90;;;;;;5073784;28;20029;-88
2021/08/20 05:22:51;;;;;;;30.33;21.45;;;15.80;99.90;;;;;;5055860;28;20044;-89
2021/08/20 05:25:19;;;;;;;26.10;19.58;;;15.80;99.90;;;;;;5073804;28;20473;-90
2021/08/20 05:27:46;;;;;;;26.90;20.48;;;15.80;99.90;;;;;;5056089;28;20024;-88
2021/08/20 05:30:14;;;;;;;26.65;20.27;;;15.80;99.90;;;;;;5055791;28;20033;-88
2021/08/20 05:32:40;;;;;;;27.42;19.25;;;15.80;99.90;;;;;;5055923;28;20068;-88
2021/08/20 05:35:09;;;;;;;25.10;18.23;;;15.80;99.90;;;;;;5055876;28;20108;-88
2021/08/20 05:37:36;;;;;;;25.02;18.00;;;15.80;99.90;;;;;;5055711;28;20044;-89
2021/08/20 05:40:04;;;;;;;26.35;18.15;;;15.90;99.90;;;;;;5073816;28;20107;-89
2021/08/20 05:42:30;;;;;;;28.75;19.25;;;15.90;99.90;;;;;;5055229;28;20523;-88
2021/08/20 05:44:57;;;;;;;28.13;20.23;;;15.90;99.90;;;;;;5055589;28;20027;-88
2021/08/20 05:47:23;;;;;;;26.20;18.80;;;15.90;99.90;;;;;;5073388;28;20017;-88
2021/08/20 05:49:49;;;;;;;28.35;19.67;;;15.90;99.90;;;;;;5055672;28;20028;-88
2021/08/20 05:52:15;;;;;;;27.23;18.73;;;16.00;99.90;;;;;;5055186;28;20442;-88
2021/08/20 05:54:41;;;;;;;30.23;20.58;;;16.00;99.90;;;;;;5055707;28;20024;-88
2021/08/20 05:57:07;;;;;;;31.48;20.25;;;16.10;99.90;;;;;;5055664;28;20532;-88
2021/08/20 05:59:32;;;;;;;28.17;18.77;;;16.10;99.90;;;;;;5055665;28;20021;-88
2021/08/20 06:01:58;;;;;;;29.85;19.08;;;16.20;99.90;;;;;;5055289;28;20025;-89
2021/08/20 06:04:24;;;;;;;31.13;19.50;;;16.20;99.90;;;;;;5055564;28;20379;-89
2021/08/20 06:06:49;;;;;;;30.75;20.33;;;16.20;99.90;;;;;;5052669;28;20020;-87
2021/08/20 06:09:16;;;;;;;30.25;20.80;;;16.30;99.90;;;;;;5054552;28;20024;-87
2021/08/20 06:11:41;;;;;;;29.83;20.60;;;16.30;99.90;;;;;;5040375;28;20063;-88
2021/08/20 06:14:08;;;;;;;33.67;20.88;;;16.30;99.90;;;;;;5057299;28;20027;-88
2021/08/20 06:16:34;;;;;;;29.85;21.50;;;16.40;99.90;;;;;;5057463;28;20044;-88
2021/08/20 06:19:00;;;;;;;32.33;21.85;;;16.40;99.90;;;;;;5057165;28;20067;-87
2021/08/20 06:21:25;;;;;;;30.80;21.30;;;16.40;99.90;;;;;;5057362;28;20066;-87
2021/08/20 06:23:51;;;;;;;28.80;19.33;;;16.50;99.90;;;;;;5056963;28;20491;-88
2021/08/20 06:26:17;;;;;;;29.45;19.55;;;16.50;99.90;;;;;;5057516;28;20033;-88
2021/08/20 06:28:44;;;;;;;31.35;20.52;;;16.50;99.90;;;;;;5075301;28;20460;-89
2021/08/20 06:31:09;;;;;;;31.02;20.35;;;16.60;99.90;;;;;;5057192;28;20029;-88
2021/08/20 06:33:39;;;;;;;29.50;22.30;;;16.70;99.90;;;;;;5074798;28;20020;-89
2021/08/20 06:36:05;;;;;;;28.25;21.33;;;16.80;99.90;;;;;;5074034;28;20024;-87
2021/08/20 06:38:31;;;;;;;29.20;20.92;;;16.90;99.90;;;;;;5075753;28;20062;-87
2021/08/20 06:40:57;;;;;;;27.52;20.73;;;16.90;99.90;;;;;;5051933;28;20028;-88
2021/08/20 06:43:23;;;;;;;23.67;18.20;;;16.90;99.90;;;;;;5060128;28;20072;-89
2021/08/20 06:45:48;;;;;;;29.33;19.95;;;16.90;99.90;;;;;;5055669;28;20049;-88
2021/08/20 06:48:16;;;;;;;28.33;20.13;;;17.00;99.90;;;;;;5074357;28;20103;-88
2021/08/20 06:50:43;;;;;;;26.80;18.80;;;17.00;99.90;;;;;;5056429;28;20032;-88
2021/08/20 06:53:09;;;;;;;24.08;17.40;;;17.00;99.90;;;;;;5055834;28;20020;-88
2021/08/20 06:55:35;;;;;;;24.63;17.83;;;17.10;99.90;;;;;;5056417;28;20028;-87
2021/08/20 06:58:00;;;;;;;25.45;18.23;;;17.00;99.90;;;;;;5056502;28;20017;-88
2021/08/20 07:00:26;;;;;;;23.85;16.70;;;17.00;99.90;;;;;;5056836;28;20109;-90
2021/08/20 07:02:52;;;;;;;25.45;18.08;;;17.00;99.90;;;;;;5056264;28;20045;-88
2021/08/20 07:05:18;;;;;;;28.35;19.60;;;17.00;99.90;;;;;;5055450;28;20119;-88
2021/08/20 07:07:46;;;;;;;27.05;19.42;;;17.00;99.90;;;;;;5055345;28;20034;-89
2021/08/20 07:10:16;;;;;;;26.70;18.75;;;17.10;99.90;;;;;;5055905;28;20024;-90
2021/08/20 07:12:43;;;;;;;24.45;18.10;;;17.10;99.90;;;;;;5056286;28;20020;-88
2021/08/20 07:15:12;;;;;;;23.60;17.08;;;17.30;99.90;;;;;;5054916;28;20028;-87
2021/08/20 07:17:39;;;;;;;22.42;16.05;;;17.40;99.90;;;;;;5055445;28;20021;-89
2021/08/20 07:20:07;;;;;;;27.05;19.40;;;17.50;99.90;;;;;;5055658;28;20031;-88
2021/08/20 07:22:33;;;;;;;23.20;17.55;;;17.60;99.90;;;;;;5055052;28;20040;-89
2021/08/20 07:24:59;;;;;;;24.30;18.48;;;17.60;99.90;;;;;;5055342;28;20016;-89
2021/08/20 07:27:35;;;;;;;24.38;19.15;;;17.80;99.90;;;;;;5055076;28;20024;-88
2021/08/20 07:30:01;;;;;;;23.38;17.58;;;17.80;99.90;;;;;;5055645;28;20090;-87
2021/08/20 07:32:27;;;;;;;23.23;17.55;;;17.90;99.90;;;;;;5073897;28;20029;-88
2021/08/20 07:34:53;;;;;;;19.30;14.73;;;18.00;99.90;;;;;;5073582;28;20024;-88
2021/08/20 07:37:18;;;;;;;22.10;17.65;;;18.00;99.90;;;;;;5073658;28;20025;-89
2021/08/20 07:39:44;;;;;;;24.35;20.27;;;18.10;99.90;;;;;;5035862;28;20579;-89
2021/08/20 07:42:10;;;;;;;23.92;20.55;;;18.10;99.90;;;;;;5049373;28;20060;-87
2021/08/20 07:44:36;;;;;;;28.35;22.13;;;18.30;99.90;;;;;;5055956;28;20037;-88
2021/08/20 07:47:05;;;;;;;24.15;20.45;;;18.40;99.90;;;;;;5035458;28;20024;-87
2021/08/20 07:49:31;;;;;;;24.83;21.25;;;18.40;99.90;;;;;;5044035;28;20028;-88
2021/08/20 07:51:57;;;;;;;24.95;21.70;;;18.50;99.90;;;;;;5073434;28;20029;-87
2021/08/20 07:54:27;;;;;;;26.13;21.75;;;18.60;99.90;;;;;;5038388;28;20090;-87
2021/08/20 07:56:54;;;;;;;26.33;21.80;;;18.60;99.90;;;;;;5055176;28;20044;-88
2021/08/20 07:59:20;;;;;;;22.05;19.65;;;18.70;99.90;;;;;;5054961;28;20060;-88
2021/08/20 08:01:47;;;;;;;23.13;19.50;;;18.70;99.90;;;;;;5055529;28;20053;-89
2021/08/20 08:04:14;;;;;;;22.67;18.50;;;18.80;99.90;;;;;;5072931;28;20496;-89
2021/08/20 08:06:40;;;;;;;19.67;16.95;;;18.90;99.90;;;;;;5072772;28;20025;-88
2021/08/20 08:09:06;;;;;;;20.17;17.23;;;19.00;99.90;;;;;;5021845;28;20036;-88
2021/08/20 08:11:33;;;;;;;22.13;18.95;;;19.10;99.90;;;;;;5065656;28;20028;-90
2021/08/20 08:14:08;;;;;;;21.65;17.48;;;19.10;99.90;;;;;;5055191;28;20109;-89
2021/08/20 08:16:37;;;;;;;19.90;16.45;;;19.10;99.90;;;;;;5072823;28;20016;-89
2021/08/20 08:19:04;;;;;;;18.83;14.80;;;19.20;99.90;;;;;;5054890;28;20096;-89
2021/08/20 08:21:30;;;;;;;18.02;15.20;;;19.30;99.90;;;;;;5054815;28;20033;-89
2021/08/20 08:23:57;;;;;;;23.33;18.80;;;19.40;99.90;;;;;;5054827;28;20056;-89
2021/08/20 08:26:24;;;;;;;21.20;17.83;;;19.50;99.90;;;;;;5054684;28;20052;-89
2021/08/20 08:28:54;;;;;;;20.27;17.63;;;19.50;99.90;;;;;;5072726;28;20024;-89
2021/08/20 08:31:23;;;;;;;19.52;17.42;;;19.40;99.90;;;;;;5072142;28;20027;-88
2021/08/20 08:33:50;;;;;;;20.45;17.80;;;19.40;99.90;;;;;;5072643;28;20031;-88
2021/08/20 08:36:16;;;;;;;19.65;17.35;;;19.50;99.90;;;;;;5054111;28;20060;-90
2021/08/20 08:38:42;;;;;;;20.25;17.85;;;19.60;99.90;;;;;;5054864;28;20028;-89
2021/08/20 08:41:08;;;;;;;21.70;18.23;;;19.70;99.90;;;;;;5037639;28;20036;-88
2021/08/20 08:43:34;;;;;;;19.38;17.30;;;19.80;99.90;;;;;;5053471;28;20047;-89
2021/08/20 08:46:04;;;;;;;19.55;17.45;;;20.00;99.90;;;;;;5053457;28;20029;-90
2021/08/20 08:48:31;;;;;;;19.98;17.88;;;20.10;99.90;;;;;;5072351;28;20540;-89
2021/08/20 08:50:59;;;;;;;19.95;17.85;;;20.20;99.90;;;;;;5053979;28;20042;-90
2021/08/20 08:53:49;;;;;;;21.25;18.13;;;20.20;99.90;;;;;;5072899;28;20017;-89
2021/08/20 08:56:19;;;;;;;21.25;19.05;;;20.40;99.90;;;;;;5054209;28;20039;-90
2021/08/20 08:58:46;;;;;;;18.80;16.45;;;20.50;99.90;;;;;;5052898;28;20032;-90
2021/08/20 09:01:37;;;;;;;18.92;16.92;;;20.60;99.90;;;;;;5053851;28;20038;-89
2021/08/20 09:04:18;;;;;;;19.25;17.00;;;20.70;99.90;;;;;;5072020;28;20495;-90
2021/08/20 09:06:44;;;;;;;17.67;15.75;;;20.80;99.90;;;;;;5053614;28;20029;-89
2021/08/20 09:09:12;;;;;;;16.48;14.50;;;21.00;99.90;;;;;;5053751;28;20081;-90
2021/08/20 09:11:38;;;;;;;18.23;16.33;;;21.20;99.90;;;;;;5043211;28;20020;-89
2021/08/20 09:14:06;;;;;;;17.10;15.38;;;21.30;99.90;;;;;;5053894;28;20028;-89
2021/08/20 09:16:40;;;;;;;19.17;17.08;;;21.20;99.90;;;;;;5072083;28;20410;-90
2021/08/20 09:19:12;;;;;;;20.25;18.15;;;21.20;99.90;;;;;;5054132;28;20025;-90
2021/08/20 09:21:39;;;;;;;15.48;13.88;;;21.10;99.90;;;;;;5071545;28;20037;-90
2021/08/20 09:24:37;;;;;;;15.93;14.23;;;21.10;99.90;;;;;;5036283;28;20036;-89
2021/08/20 09:27:21;;;;;;;14.10;12.63;;;21.20;99.90;;;;;;5040188;28;20016;-87
2021/08/20 09:30:07;;;;;;;11.98;10.77;;;21.40;99.90;;;;;;5053422;28;20082;-86
2021/08/20 09:32:35;;;;;;;14.02;12.00;;;21.70;99.90;;;;;;5070811;28;20500;-88
2021/08/20 09:35:01;;;;;;;14.13;12.02;;;21.80;99.90;;;;;;5053208;28;20028;-89
2021/08/20 09:37:30;;;;;;;12.77;11.13;;;22.00;99.90;;;;;;5053104;28;20025;-88
2021/08/20 09:40:08;;;;;;;16.63;13.88;;;22.30;99.90;;;;;;5071209;28;20020;-88
2021/08/20 09:42:35;;;;;;;12.40;11.20;;;22.50;99.90;;;;;;5053170;28;20071;-88
2021/08/20 09:45:15;;;;;;;14.18;12.32;;;22.60;99.90;;;;;;5052946;28;20052;-89
2021/08/20 09:47:47;;;;;;;14.63;13.13;;;22.60;99.90;;;;;;5070245;28;20122;-88
2021/08/20 09:50:13;;;;;;;13.38;11.80;;;22.40;99.90;;;;;;5070291;28;20108;-90
2021/08/20 09:52:39;;;;;;;14.70;12.57;;;22.20;99.90;;;;;;5052469;28;20055;-89
2021/08/20 09:55:05;;;;;;;10.88;9.65;;;22.10;99.90;;;;;;5070661;28;20036;-88
2021/08/20 09:57:33;;;;;;;10.75;9.65;;;22.10;99.90;;;;;;5050480;28;20027;-88
2021/08/20 09:59:59;;;;;;;13.15;11.27;;;22.10;99.90;;;;;;5048703;28;20039;-90
2021/08/20 10:02:27;;;;;;;13.00;11.60;;;22.00;99.90;;;;;;5051793;28;20090;-90
2021/08/20 10:04:54;;;;;;;11.30;10.10;;;22.00;99.90;;;;;;5053205;28;20016;-90
2021/08/20 10:07:22;;;;;;;12.50;10.60;;;22.10;99.90;;;;;;5070157;28;20021;-90
2021/08/20 10:09:49;;;;;;;12.20;10.20;;;22.40;99.90;;;;;;5036309;28;20032;-91
2021/08/20 10:12:19;;;;;;;10.70;9.40;;;22.70;99.90;;;;;;5070577;28;20548;-89
2021/08/20 10:14:46;;;;;;;9.68;8.50;;;22.80;99.90;;;;;;5070312;28;20036;-91
2021/08/20 10:17:13;;;;;;;9.90;8.52;;;22.90;99.90;;;;;;5052132;28;20027;-88
2021/08/20 10:19:41;;;;;;;12.82;10.50;;;23.00;99.90;;;;;;5071498;28;20016;-89
2021/08/20 10:22:08;;;;;;;9.35;8.35;;;23.20;99.90;;;;;;5049835;28;20127;-89
2021/08/20 10:24:35;;;;;;;10.88;8.68;;;23.30;99.90;;;;;;5053426;28;20060;-90
2021/08/20 10:27:05;;;;;;;10.23;8.45;;;23.40;99.90;;;;;;5053516;28;20115;-89
2021/08/20 10:29:39;;;;;;;10.43;8.15;;;23.40;99.90;;;;;;5053681;28;20027;-90
2021/08/20 10:32:08;;;;;;;10.02;7.60;;;23.30;99.90;;;;;;5071465;28;20024;-89
2021/08/20 10:34:39;;;;;;;8.52;7.60;;;23.20;99.90;;;;;;5052117;28;20099;-88
2021/08/20 10:37:25;;;;;;;7.93;6.32;;;23.10;99.90;;;;;;5069979;28;20024;-87
2021/08/20 10:39:55;;;;;;;9.75;7.18;;;23.30;99.90;;;;;;5053641;28;20066;-89
2021/08/20 10:42:35;;;;;;;8.93;7.72;;;23.70;99.90;;;;;;5070954;28;20941;-91
2021/08/20 10:45:12;;;;;;;10.25;8.00;;;23.60;99.90;;;;;;5053903;28;20085;-89
2021/08/20 10:47:40;;;;;;;9.05;7.45;;;23.40;99.90;;;;;;5071664;28;20020;-88
2021/08/20 10:50:13;;;;;;;8.93;6.78;;;23.10;99.90;;;;;;5053521;28;20021;-87
2021/08/20 10:52:44;;;;;;;10.02;7.18;;;23.10;99.90;;;;;;5032573;28;20094;-87
2021/08/20 10:55:14;;;;;;;7.53;6.53;;;23.20;99.90;;;;;;5034719;28;20140;-88
2021/08/20 10:57:42;;;;;;;6.43;5.07;;;23.20;99.90;;;;;;5043103;28;20058;-87
2021/08/20 11:00:23;;;;;;;5.03;3.90;;;23.10;99.90;;;;;;5056183;28;20060;-86
2021/08/20 11:02:52;;;;;;;5.18;3.17;;;23.10;99.90;;;;;;5055865;28;20020;-87
2021/08/20 11:05:38;;;;;;;3.92;2.72;;;23.00;99.90;;;;;;5056788;28;20028;-89
2021/08/20 11:08:23;;;;;;;3.95;2.13;;;23.00;99.90;;;;;;5058657;28;20093;-88
2021/08/20 11:10:50;;;;;;;3.75;2.50;;;23.10;99.90;;;;;;5057191;28;20325;-89
2021/08/20 11:13:25;;;;;;;4.07;2.67;;;23.40;99.90;;;;;;5076707;28;20067;-89
2021/08/20 11:15:53;;;;;;;4.40;3.38;;;23.50;99.90;;;;;;5058201;28;20031;-90
2021/08/20 11:18:45;;;;;;;4.75;3.13;;;23.70;99.90;;;;;;5058790;28;20027;-90
2021/08/20 11:21:30;;;;;;;4.32;3.63;;;23.70;99.90;;;;;;5058726;28;20037;-90
2021/08/20 11:24:20;;;;;;;4.50;3.53;;;24.10;99.90;;;;;;5058048;28;20033;-89
2021/08/20 11:26:46;;;;;;;4.32;3.40;;;24.90;99.90;;;;;;5058576;28;20119;-90
2021/08/20 11:29:14;;;;;;;5.40;3.63;;;25.30;99.90;;;;;;5076083;28;20024;-90
2021/08/20 11:31:39;;;;;;;6.32;5.43;;;25.70;99.90;;;;;;5040076;28;20170;-90
2021/08/20 11:34:06;;;;;;;6.07;5.03;;;25.90;99.90;;;;;;5074759;28;20380;-89
2021/08/20 11:36:32;;;;;;;5.60;4.25;;;26.50;99.90;;;;;;5056610;28;20429;-89
2021/08/20 11:39:01;;;;;;;4.82;4.07;;;27.10;99.90;;;;;;5057474;28;20033;-89
2021/08/20 11:41:44;;;;;;;5.60;3.88;;;27.70;99.90;;;;;;5056989;28;20472;-90
2021/08/20 11:44:12;;;;;;;5.13;4.25;;;28.40;99.90;;;;;;5056026;28;20037;-91
2021/08/20 11:46:50;;;;;;;4.65;3.28;;;29.00;99.90;;;;;;5054655;28;20070;-90
2021/08/20 11:49:27;;;;;;;5.25;4.07;;;29.50;99.90;;;;;;5054347;28;20119;-89
2021/08/20 11:52:07;;;;;;;5.88;5.00;;;29.50;99.90;;;;;;5056593;28;20039;-90
2021/08/20 11:54:36;;;;;;;4.97;3.72;;;28.60;99.90;;;;;;5057410;28;20031;-89
2021/08/20 11:57:01;;;;;;;4.75;3.90;;;27.90;99.90;;;;;;5070594;28;20029;-89
2021/08/20 11:59:27;;;;;;;5.00;4.18;;;27.90;99.90;;;;;;5057557;28;20449;-90
2021/08/20 12:01:54;;;;;;;4.95;3.50;;;27.90;99.90;;;;;;5056688;28;20425;-89
2021/08/20 12:04:22;;;;;;;4.22;3.33;;;27.60;99.90;;;;;;5054311;28;20025;-89
2021/08/20 12:06:49;;;;;;;3.92;3.00;;;27.50;99.90;;;;;;5074111;28;20484;-89
2021/08/20 12:09:22;;;;;;;4.07;3.03;;;28.40;99.90;;;;;;5056847;28;20044;-91
2021/08/20 12:11:52;;;;;;;5.45;4.57;;;29.10;99.90;;;;;;5057786;28;20025;-91
2021/08/20 12:14:27;;;;;;;5.03;3.97;;;29.10;99.90;;;;;;5055814;28;20074;-90
2021/08/20 12:16:56;;;;;;;5.13;3.35;;;29.10;99.90;;;;;;5051965;28;20036;-90
2021/08/20 12:19:30;;;;;;;4.78;2.75;;;29.50;99.90;;;;;;5056335;28;20012;-90
2021/08/20 12:22:06;;;;;;;3.65;2.90;;;30.30;99.90;;;;;;5056184;28;20059;-90
2021/08/20 12:24:53;;;;;;;6.22;4.47;;;31.00;99.90;;;;;;5056346;28;20097;-90
2021/08/20 12:27:21;;;;;;;3.40;2.90;;;31.10;98.60;;;;;;5052394;28;20028;-89
2021/08/20 12:29:59;;;;;;;4.63;3.63;;;31.20;98.90;;;;;;5055926;28;20017;-90
2021/08/20 12:32:36;;;;;;;4.00;3.60;;;31.50;98.20;;;;;;5056073;28;20533;-91
2021/08/20 12:35:17;;;;;;;5.88;4.60;;;31.80;98.50;;;;;;5055093;28;20101;-91